sensor_id;sensor_type;location;lat;lon;timestamp;pressure;altitude;pressure_sealevel;temperature;humidity
38716;BME280;24833;49.324;8.694;2023-01-19T00:00:53;98763.34;;;-1.43;85.36
38716;BME280;24833;49.324;8.694;2023-01-19T00:03:20;98768.56;;;-1.43;85.32
38716;BME280;24833;49.324;8.694;2023-01-19T00:05:48;98764.16;;;-1.43;85.51
38716;BME280;24833;49.324;8.694;2023-01-19T00:08:16;98769.41;;;-1.43;85.96
38716;BME280;24833;49.324;8.694;2023-01-19T00:10:48;98771.03;;;-1.42;85.85
38716;BME280;24833;49.324;8.694;2023-01-19T00:13:18;98767.44;;;-1.41;86.08
38716;BME280;24833;49.324;8.694;2023-01-19T00:15:45;98768.31;;;-1.40;85.59
38716;BME280;24833;49.324;8.694;2023-01-19T00:18:12;98779.44;;;-1.38;86.12
38716;BME280;24833;49.324;8.694;2023-01-19T00:20:40;98775.84;;;-1.37;85.43
38716;BME280;24833;49.324;8.694;2023-01-19T00:23:07;98774.06;;;-1.37;86.14
38716;BME280;24833;49.324;8.694;2023-01-19T00:25:35;98780.94;;;-1.35;85.96
38716;BME280;24833;49.324;8.694;2023-01-19T00:28:13;98777.34;;;-1.34;86.20
38716;BME280;24833;49.324;8.694;2023-01-19T00:30:41;98776.41;;;-1.33;86.42
38716;BME280;24833;49.324;8.694;2023-01-19T00:33:09;98782.59;;;-1.34;86.56
38716;BME280;24833;49.324;8.694;2023-01-19T00:35:37;98778.06;;;-1.32;86.59
38716;BME280;24833;49.324;8.694;2023-01-19T00:38:04;98778.88;;;-1.32;86.21
38716;BME280;24833;49.324;8.694;2023-01-19T00:40:31;98784.94;;;-1.31;86.35
38716;BME280;24833;49.324;8.694;2023-01-19T00:42:58;98781.34;;;-1.30;85.87
38716;BME280;24833;49.324;8.694;2023-01-19T00:45:26;98785.59;;;-1.29;85.98
38716;BME280;24833;49.324;8.694;2023-01-19T00:47:53;98788.06;;;-1.28;86.31
38716;BME280;24833;49.324;8.694;2023-01-19T00:50:25;98787.25;;;-1.28;85.41
38716;BME280;24833;49.324;8.694;2023-01-19T00:52:54;98785.31;;;-1.26;85.85
38716;BME280;24833;49.324;8.694;2023-01-19T00:55:22;98781.72;;;-1.25;86.25
38716;BME280;24833;49.324;8.694;2023-01-19T00:57:49;98783.06;;;-1.21;86.75
38716;BME280;24833;49.324;8.694;2023-01-19T01:00:18;98784.75;;;-1.20;85.97
38716;BME280;24833;49.324;8.694;2023-01-19T01:02:48;98787.06;;;-1.17;86.42
38716;BME280;24833;49.324;8.694;2023-01-19T01:05:17;98785.94;;;-1.15;86.64
38716;BME280;24833;49.324;8.694;2023-01-19T01:07:45;98792.00;;;-1.14;86.33
38716;BME280;24833;49.324;8.694;2023-01-19T01:10:25;98791.06;;;-1.13;86.15
38716;BME280;24833;49.324;8.694;2023-01-19T01:12:52;98797.78;;;-1.11;86.29
38716;BME280;24833;49.324;8.694;2023-01-19T01:15:26;98806.47;;;-1.10;86.21
38716;BME280;24833;49.324;8.694;2023-01-19T01:17:54;98803.69;;;-1.08;86.24
38716;BME280;24833;49.324;8.694;2023-01-19T01:20:24;98797.34;;;-1.06;87.20
38716;BME280;24833;49.324;8.694;2023-01-19T01:22:54;98799.00;;;-1.05;86.79
38716;BME280;24833;49.324;8.694;2023-01-19T01:25:24;98802.28;;;-1.03;86.44
38716;BME280;24833;49.324;8.694;2023-01-19T01:27:52;98803.09;;;-1.02;86.42
38716;BME280;24833;49.324;8.694;2023-01-19T01:30:20;98804.75;;;-1.01;86.38
38716;BME280;24833;49.324;8.694;2023-01-19T01:32:47;98808.88;;;-0.99;86.83
38716;BME280;24833;49.324;8.694;2023-01-19T01:35:15;98806.28;;;-0.99;86.95
38716;BME280;24833;49.324;8.694;2023-01-19T01:37:43;98809.72;;;-0.98;87.06
38716;BME280;24833;49.324;8.694;2023-01-19T01:40:14;98808.75;;;-0.97;87.39
38716;BME280;24833;49.324;8.694;2023-01-19T01:42:42;98811.22;;;-0.96;87.50
38716;BME280;24833;49.324;8.694;2023-01-19T01:45:34;98813.56;;;-0.93;87.20
38716;BME280;24833;49.324;8.694;2023-01-19T01:48:22;98814.38;;;-0.92;87.17
38716;BME280;24833;49.324;8.694;2023-01-19T01:50:59;98808.31;;;-0.93;87.26
38716;BME280;24833;49.324;8.694;2023-01-19T01:53:54;98816.84;;;-0.91;86.78
38716;BME280;24833;49.324;8.694;2023-01-19T01:56:33;98826.34;;;-0.90;86.10
38716;BME280;24833;49.324;8.694;2023-01-19T01:59:06;98816.69;;;-0.89;86.62
38716;BME280;24833;49.324;8.694;2023-01-19T02:01:35;98814.88;;;-0.89;86.28
38716;BME280;24833;49.324;8.694;2023-01-19T02:04:22;98821.78;;;-0.88;86.21
38716;BME280;24833;49.324;8.694;2023-01-19T02:06:49;98820.81;;;-0.87;85.93
38716;BME280;24833;49.324;8.694;2023-01-19T02:09:36;98819.16;;;-0.88;85.83
38716;BME280;24833;49.324;8.694;2023-01-19T02:12:22;98816.53;;;-0.88;86.24
38716;BME280;24833;49.324;8.694;2023-01-19T02:15:18;98814.88;;;-0.89;85.89
38716;BME280;24833;49.324;8.694;2023-01-19T02:17:46;98815.03;;;-0.90;86.42
38716;BME280;24833;49.324;8.694;2023-01-19T02:20:14;98809.97;;;-0.92;86.07
38716;BME280;24833;49.324;8.694;2023-01-19T02:22:49;98809.13;;;-0.92;86.67
38716;BME280;24833;49.324;8.694;2023-01-19T02:25:18;98816.16;;;-0.93;86.41
38716;BME280;24833;49.324;8.694;2023-01-19T02:27:47;98814.66;;;-0.95;86.32
38716;BME280;24833;49.324;8.694;2023-01-19T02:30:15;98813.81;;;-0.96;86.28
38716;BME280;24833;49.324;8.694;2023-01-19T02:32:43;98812.34;;;-0.98;86.33
38716;BME280;24833;49.324;8.694;2023-01-19T02:35:11;98810.53;;;-0.98;86.08
38716;BME280;24833;49.324;8.694;2023-01-19T02:37:39;98810.69;;;-0.99;86.65
38716;BME280;24833;49.324;8.694;2023-01-19T02:40:17;98808.88;;;-0.99;86.52
38716;BME280;24833;49.324;8.694;2023-01-19T02:42:50;98806.41;;;-1.00;86.40
38716;BME280;24833;49.324;8.694;2023-01-19T02:45:21;98805.56;;;-1.01;86.40
38716;BME280;24833;49.324;8.694;2023-01-19T02:47:50;98816.06;;;-1.01;87.23
38716;BME280;24833;49.324;8.694;2023-01-19T02:50:57;98816.06;;;-1.01;86.85
38716;BME280;24833;49.324;8.694;2023-01-19T02:59:33;98814.97;;;-0.98;86.47
38716;BME280;24833;49.324;8.694;2023-01-19T03:02:26;98817.41;;;-0.97;86.22
38716;BME280;24833;49.324;8.694;2023-01-19T03:08:22;98811.75;;;-0.92;86.10
38716;BME280;24833;49.324;8.694;2023-01-19T03:11:10;98808.16;;;-0.91;86.25
38716;BME280;24833;49.324;8.694;2023-01-19T03:13:58;98806.34;;;-0.91;86.06
38716;BME280;24833;49.324;8.694;2023-01-19T03:16:50;98804.41;;;-0.89;86.29
38716;BME280;24833;49.324;8.694;2023-01-19T03:19:27;98805.38;;;-0.90;86.08
38716;BME280;24833;49.324;8.694;2023-01-19T03:22:01;98812.25;;;-0.89;86.09
38716;BME280;24833;49.324;8.694;2023-01-19T03:24:36;98807.03;;;-0.89;86.59
38716;BME280;24833;49.324;8.694;2023-01-19T03:27:25;98801.13;;;-0.91;86.81
38716;BME280;24833;49.324;8.694;2023-01-19T03:30:08;98801.13;;;-0.91;86.63
38716;BME280;24833;49.324;8.694;2023-01-19T03:32:48;98808.00;;;-0.90;86.53
38716;BME280;24833;49.324;8.694;2023-01-19T03:35:19;98812.25;;;-0.89;86.07
38716;BME280;24833;49.324;8.694;2023-01-19T03:37:50;98820.13;;;-0.89;86.28
38716;BME280;24833;49.324;8.694;2023-01-19T03:40:20;98816.53;;;-0.88;86.26
38716;BME280;24833;49.324;8.694;2023-01-19T03:42:48;98827.72;;;-0.86;86.27
38716;BME280;24833;49.324;8.694;2023-01-19T03:45:16;98826.72;;;-0.85;86.43
38716;BME280;24833;49.324;8.694;2023-01-19T03:47:44;98830.03;;;-0.83;86.11
38716;BME280;24833;49.324;8.694;2023-01-19T03:50:21;98838.56;;;-0.80;85.57
38716;BME280;24833;49.324;8.694;2023-01-19T03:53:11;98835.00;;;-0.79;85.83
38716;BME280;24833;49.324;8.694;2023-01-19T03:55:42;98838.44;;;-0.79;85.92
38716;BME280;24833;49.324;8.694;2023-01-19T03:58:10;98845.16;;;-0.76;85.68
38716;BME280;24833;49.324;8.694;2023-01-19T04:00:38;98839.91;;;-0.76;86.49
38716;BME280;24833;49.324;8.694;2023-01-19T04:03:11;98845.81;;;-0.74;86.36
38716;BME280;24833;49.324;8.694;2023-01-19T04:05:39;98844.88;;;-0.73;86.09
38716;BME280;24833;49.324;8.694;2023-01-19T04:08:06;98849.16;;;-0.72;86.69
38716;BME280;24833;49.324;8.694;2023-01-19T04:10:33;98848.19;;;-0.71;86.38
38716;BME280;24833;49.324;8.694;2023-01-19T04:13:01;98842.94;;;-0.71;86.75
38716;BME280;24833;49.324;8.694;2023-01-19T04:15:29;98848.19;;;-0.71;86.99
38716;BME280;24833;49.324;8.694;2023-01-19T04:17:57;98850.66;;;-0.70;87.51
38716;BME280;24833;49.324;8.694;2023-01-19T04:20:26;98849.66;;;-0.69;86.63
38716;BME280;24833;49.324;8.694;2023-01-19T04:22:57;98844.28;;;-0.67;86.96
38716;BME280;24833;49.324;8.694;2023-01-19T04:25:26;98840.81;;;-0.68;86.57
38716;BME280;24833;49.324;8.694;2023-01-19T04:27:54;98847.59;;;-0.65;86.78
38716;BME280;24833;49.324;8.694;2023-01-19T04:30:21;98847.59;;;-0.65;86.64
38716;BME280;24833;49.324;8.694;2023-01-19T04:32:48;98847.59;;;-0.65;86.63
38716;BME280;24833;49.324;8.694;2023-01-19T04:35:15;98836.13;;;-0.64;86.99
38716;BME280;24833;49.324;8.694;2023-01-19T04:37:42;98840.41;;;-0.63;86.45
38716;BME280;24833;49.324;8.694;2023-01-19T04:40:11;98840.41;;;-0.63;86.70
38716;BME280;24833;49.324;8.694;2023-01-19T04:42:42;98835.97;;;-0.63;86.76
38716;BME280;24833;49.324;8.694;2023-01-19T04:45:10;98847.28;;;-0.62;86.53
38716;BME280;24833;49.324;8.694;2023-01-19T04:47:37;98849.06;;;-0.63;86.20
38716;BME280;24833;49.324;8.694;2023-01-19T04:50:05;98852.69;;;-0.64;86.44
38716;BME280;24833;49.324;8.694;2023-01-19T04:52:33;98850.88;;;-0.63;86.61
38716;BME280;24833;49.324;8.694;2023-01-19T04:55:04;98860.38;;;-0.62;86.56
38716;BME280;24833;49.324;8.694;2023-01-19T04:57:31;98853.50;;;-0.63;86.79
38716;BME280;24833;49.324;8.694;2023-01-19T04:59:58;98866.44;;;-0.62;86.56
38716;BME280;24833;49.324;8.694;2023-01-19T05:02:25;98865.47;;;-0.61;86.21
38716;BME280;24833;49.324;8.694;2023-01-19T05:04:52;98866.31;;;-0.60;86.14
38716;BME280;24833;49.324;8.694;2023-01-19T05:07:19;98867.97;;;-0.59;86.14
38716;BME280;24833;49.324;8.694;2023-01-19T05:09:49;98869.63;;;-0.58;86.22
38716;BME280;24833;49.324;8.694;2023-01-19T05:12:16;98869.63;;;-0.58;86.21
38716;BME280;24833;49.324;8.694;2023-01-19T05:14:43;98876.50;;;-0.57;86.01
38716;BME280;24833;49.324;8.694;2023-01-19T05:17:11;98874.56;;;-0.55;85.91
38716;BME280;24833;49.324;8.694;2023-01-19T05:19:38;98875.38;;;-0.55;86.07
38716;BME280;24833;49.324;8.694;2023-01-19T05:22:05;98876.19;;;-0.54;86.31
38716;BME280;24833;49.324;8.694;2023-01-19T05:24:32;98875.25;;;-0.53;85.96
38716;BME280;24833;49.324;8.694;2023-01-19T05:26:59;98880.19;;;-0.50;86.19
38716;BME280;24833;49.324;8.694;2023-01-19T05:29:26;98879.22;;;-0.49;85.91
38716;BME280;24833;49.324;8.694;2023-01-19T05:31:53;98872.97;;;-0.48;85.92
38716;BME280;24833;49.324;8.694;2023-01-19T05:34:20;98880.84;;;-0.48;86.44
38716;BME280;24833;49.324;8.694;2023-01-19T05:36:47;98878.94;;;-0.46;85.86
38716;BME280;24833;49.324;8.694;2023-01-19T05:39:14;98876.31;;;-0.46;86.75
38716;BME280;24833;49.324;8.694;2023-01-19T05:41:41;98879.75;;;-0.45;86.25
38716;BME280;24833;49.324;8.694;2023-01-19T05:44:11;98870.91;;;-0.44;86.50
38716;BME280;24833;49.324;8.694;2023-01-19T05:46:39;98878.78;;;-0.44;86.23
38716;BME280;24833;49.324;8.694;2023-01-19T05:49:06;98882.22;;;-0.44;85.99
38716;BME280;24833;49.324;8.694;2023-01-19T05:51:34;98871.56;;;-0.42;85.91
38716;BME280;24833;49.324;8.694;2023-01-19T05:54:04;98873.38;;;-0.43;86.45
38716;BME280;24833;49.324;8.694;2023-01-19T05:56:32;98870.75;;;-0.43;86.64
38716;BME280;24833;49.324;8.694;2023-01-19T05:59:00;98879.59;;;-0.44;87.62
38716;BME280;24833;49.324;8.694;2023-01-19T06:01:27;98871.72;;;-0.44;87.52
38716;BME280;24833;49.324;8.694;2023-01-19T06:03:54;98877.94;;;-0.45;87.39
38716;BME280;24833;49.324;8.694;2023-01-19T06:06:21;98867.47;;;-0.45;87.55
38716;BME280;24833;49.324;8.694;2023-01-19T06:08:49;98878.94;;;-0.46;87.65
38716;BME280;24833;49.324;8.694;2023-01-19T06:11:16;98887.75;;;-0.47;87.08
38716;BME280;24833;49.324;8.694;2023-01-19T06:13:43;98892.97;;;-0.47;86.57
38716;BME280;24833;49.324;8.694;2023-01-19T06:16:10;98899.19;;;-0.48;86.36
38716;BME280;24833;49.324;8.694;2023-01-19T06:18:37;98893.97;;;-0.48;86.47
38716;BME280;24833;49.324;8.694;2023-01-19T06:21:08;98899.19;;;-0.48;86.63
38716;BME280;24833;49.324;8.694;2023-01-19T06:23:37;98901.69;;;-0.46;86.46
38716;BME280;24833;49.324;8.694;2023-01-19T06:26:04;98899.09;;;-0.46;87.04
38716;BME280;24833;49.324;8.694;2023-01-19T06:28:32;98903.34;;;-0.45;86.75
38716;BME280;24833;49.324;8.694;2023-01-19T06:30:59;98909.25;;;-0.43;86.55
38716;BME280;24833;49.324;8.694;2023-01-19T06:33:26;98906.47;;;-0.42;86.35
38716;BME280;24833;49.324;8.694;2023-01-19T06:35:54;98914.19;;;-0.40;86.49
38716;BME280;24833;49.324;8.694;2023-01-19T06:38:21;98922.75;;;-0.38;86.53
38716;BME280;24833;49.324;8.694;2023-01-19T06:40:54;98919.16;;;-0.37;86.46
38716;BME280;24833;49.324;8.694;2023-01-19T06:43:22;98913.91;;;-0.37;86.70
38716;BME280;24833;49.324;8.694;2023-01-19T06:45:49;98915.41;;;-0.35;86.62
38716;BME280;24833;49.324;8.694;2023-01-19T06:48:17;98918.03;;;-0.35;86.72
38716;BME280;24833;49.324;8.694;2023-01-19T06:50:45;98916.09;;;-0.33;86.79
38716;BME280;24833;49.324;8.694;2023-01-19T06:53:14;98922.19;;;-0.32;86.48
38716;BME280;24833;49.324;8.694;2023-01-19T06:55:42;98924.78;;;-0.32;86.72
38716;BME280;24833;49.324;8.694;2023-01-19T06:58:10;98935.13;;;-0.31;86.43
38716;BME280;24833;49.324;8.694;2023-01-19T07:00:38;98936.78;;;-0.30;86.58
38716;BME280;24833;49.324;8.694;2023-01-19T07:03:08;98940.22;;;-0.29;86.63
38716;BME280;24833;49.324;8.694;2023-01-19T07:05:42;98938.41;;;-0.29;86.62
38716;BME280;24833;49.324;8.694;2023-01-19T07:08:09;98937.44;;;-0.28;86.25
38716;BME280;24833;49.324;8.694;2023-01-19T07:10:36;98936.50;;;-0.26;86.42
38716;BME280;24833;49.324;8.694;2023-01-19T07:13:23;98938.41;;;-0.29;87.02
38716;BME280;24833;49.324;8.694;2023-01-19T07:15:50;98941.75;;;-0.26;86.56
38716;BME280;24833;49.324;8.694;2023-01-19T07:18:16;98935.66;;;-0.27;86.62
38716;BME280;24833;49.324;8.694;2023-01-19T07:20:43;98941.75;;;-0.26;86.53
38716;BME280;24833;49.324;8.694;2023-01-19T07:23:12;98936.50;;;-0.26;86.74
38716;BME280;24833;49.324;8.694;2023-01-19T07:25:39;98939.13;;;-0.26;86.77
38716;BME280;24833;49.324;8.694;2023-01-19T07:28:06;98945.19;;;-0.26;86.91
38716;BME280;24833;49.324;8.694;2023-01-19T07:30:33;98939.13;;;-0.26;87.07
38716;BME280;24833;49.324;8.694;2023-01-19T07:33:00;98950.56;;;-0.28;86.50
38716;BME280;24833;49.324;8.694;2023-01-19T07:35:28;98948.63;;;-0.25;86.49
38716;BME280;24833;49.324;8.694;2023-01-19T07:37:55;98951.25;;;-0.25;86.50
38716;BME280;24833;49.324;8.694;2023-01-19T07:40:22;98954.72;;;-0.25;86.59
38716;BME280;24833;49.324;8.694;2023-01-19T07:42:50;98955.53;;;-0.24;86.35
38716;BME280;24833;49.324;8.694;2023-01-19T07:45:19;98958.81;;;-0.22;86.31
38716;BME280;24833;49.324;8.694;2023-01-19T07:47:47;98960.47;;;-0.21;86.28
38716;BME280;24833;49.324;8.694;2023-01-19T07:50:16;98960.47;;;-0.21;86.20
38716;BME280;24833;49.324;8.694;2023-01-19T07:52:43;98957.72;;;-0.20;86.30
38716;BME280;24833;49.324;8.694;2023-01-19T07:55:11;98962.81;;;-0.18;86.71
38716;BME280;24833;49.324;8.694;2023-01-19T07:57:38;98958.53;;;-0.19;86.51
38716;BME280;24833;49.324;8.694;2023-01-19T08:00:05;98961.00;;;-0.18;86.70
38716;BME280;24833;49.324;8.694;2023-01-19T08:02:40;98969.53;;;-0.16;86.62
38716;BME280;24833;49.324;8.694;2023-01-19T08:05:08;98967.59;;;-0.14;86.64
38716;BME280;24833;49.324;8.694;2023-01-19T08:07:35;98964.03;;;-0.13;86.57
38716;BME280;24833;49.324;8.694;2023-01-19T08:10:02;98964.84;;;-0.12;86.74
38716;BME280;24833;49.324;8.694;2023-01-19T08:12:29;98973.38;;;-0.10;86.39
38716;BME280;24833;49.324;8.694;2023-01-19T08:14:55;98969.78;;;-0.09;86.86
38716;BME280;24833;49.324;8.694;2023-01-19T08:17:22;98969.78;;;-0.09;86.76
38716;BME280;24833;49.324;8.694;2023-01-19T08:19:49;98975.69;;;-0.07;86.85
38716;BME280;24833;49.324;8.694;2023-01-19T08:22:16;98984.28;;;-0.05;87.04
38716;BME280;24833;49.324;8.694;2023-01-19T08:24:43;98982.47;;;-0.05;87.32
38716;BME280;24833;49.324;8.694;2023-01-19T08:27:10;98978.03;;;-0.04;87.09
38716;BME280;24833;49.324;8.694;2023-01-19T08:29:40;98985.59;;;-0.01;86.87
38716;BME280;24833;49.324;8.694;2023-01-19T08:32:07;98988.09;;;0.01;87.00
38716;BME280;24833;49.324;8.694;2023-01-19T08:34:34;98994.84;;;0.03;86.87
38716;BME280;24833;49.324;8.694;2023-01-19T08:37:01;98988.63;;;0.04;86.88
38716;BME280;24833;49.324;8.694;2023-01-19T08:39:28;98995.34;;;0.07;86.91
38716;BME280;24833;49.324;8.694;2023-01-19T08:41:55;98990.97;;;0.07;86.86
38716;BME280;24833;49.324;8.694;2023-01-19T08:44:22;98992.59;;;0.08;86.90
38716;BME280;24833;49.324;8.694;2023-01-19T08:46:49;98990.66;;;0.10;86.98
38716;BME280;24833;49.324;8.694;2023-01-19T08:49:18;98997.53;;;0.11;86.81
38716;BME280;24833;49.324;8.694;2023-01-19T08:51:46;98989.53;;;0.13;86.98
38716;BME280;24833;49.324;8.694;2023-01-19T08:54:14;98998.22;;;0.13;86.93
38716;BME280;24833;49.324;8.694;2023-01-19T08:56:44;98992.84;;;0.15;87.11
38716;BME280;24833;49.324;8.694;2023-01-19T08:59:11;98998.91;;;0.15;87.19
38716;BME280;24833;49.324;8.694;2023-01-19T09:01:39;98995.31;;;0.16;87.07
38716;BME280;24833;49.324;8.694;2023-01-19T09:04:07;98996.97;;;0.17;87.04
38716;BME280;24833;49.324;8.694;2023-01-19T09:06:34;98999.59;;;0.17;87.06
38716;BME280;24833;49.324;8.694;2023-01-19T09:09:02;98999.44;;;0.19;87.18
38716;BME280;24833;49.324;8.694;2023-01-19T09:11:29;98997.34;;;0.22;87.12
38716;BME280;24833;49.324;8.694;2023-01-19T09:13:56;99004.56;;;0.20;87.14
38716;BME280;24833;49.324;8.694;2023-01-19T09:16:23;98995.38;;;0.24;87.08
38716;BME280;24833;49.324;8.694;2023-01-19T09:18:52;98999.66;;;0.25;87.21
38716;BME280;24833;49.324;8.694;2023-01-19T09:21:19;98996.06;;;0.26;87.19
38716;BME280;24833;49.324;8.694;2023-01-19T09:23:46;98995.94;;;0.28;87.23
38716;BME280;24833;49.324;8.694;2023-01-19T09:26:14;98995.78;;;0.30;87.27
38716;BME280;24833;49.324;8.694;2023-01-19T09:28:42;98989.53;;;0.31;87.65
38716;BME280;24833;49.324;8.694;2023-01-19T09:31:09;98997.41;;;0.31;87.47
38716;BME280;24833;49.324;8.694;2023-01-19T09:33:36;99004.31;;;0.32;87.40
38716;BME280;24833;49.324;8.694;2023-01-19T09:36:03;98991.03;;;0.33;87.26
38716;BME280;24833;49.324;8.694;2023-01-19T09:38:30;98999.75;;;0.34;87.36
38716;BME280;24833;49.324;8.694;2023-01-19T09:40:59;98995.19;;;0.36;87.48
38716;BME280;24833;49.324;8.694;2023-01-19T09:43:41;99008.97;;;0.38;87.33
38716;BME280;24833;49.324;8.694;2023-01-19T09:46:34;98998.47;;;0.38;87.41
38716;BME280;24833;49.324;8.694;2023-01-19T09:49:19;98997.47;;;0.39;87.58
38716;BME280;24833;49.324;8.694;2023-01-19T09:51:49;98996.50;;;0.40;87.34
38716;BME280;24833;49.324;8.694;2023-01-19T09:54:41;98997.19;;;0.42;87.47
38716;BME280;24833;49.324;8.694;2023-01-19T09:57:12;98996.22;;;0.43;87.42
38716;BME280;24833;49.324;8.694;2023-01-19T09:59:40;98995.09;;;0.45;87.43
38716;BME280;24833;49.324;8.694;2023-01-19T10:02:35;98995.91;;;0.46;87.44
38716;BME280;24833;49.324;8.694;2023-01-19T10:05:25;99001.97;;;0.46;87.61
38716;BME280;24833;49.324;8.694;2023-01-19T10:10:58;99007.22;;;0.46;87.49
38716;BME280;24833;49.324;8.694;2023-01-19T10:13:50;99007.78;;;0.50;87.30
38716;BME280;24833;49.324;8.694;2023-01-19T10:16:49;99005.00;;;0.51;87.09
38716;BME280;24833;49.324;8.694;2023-01-19T10:19:24;99012.03;;;0.51;87.45
38716;BME280;24833;49.324;8.694;2023-01-19T10:21:56;99013.84;;;0.50;87.57
38716;BME280;24833;49.324;8.694;2023-01-19T10:24:41;99005.00;;;0.51;87.71
38716;BME280;24833;49.324;8.694;2023-01-19T10:27:16;99007.78;;;0.50;87.58
38716;BME280;24833;49.324;8.694;2023-01-19T10:29:44;98993.81;;;0.49;87.61
38716;BME280;24833;49.324;8.694;2023-01-19T10:32:23;99000.72;;;0.50;87.77
38716;BME280;24833;49.324;8.694;2023-01-19T10:34:52;99008.44;;;0.52;87.71
38716;BME280;24833;49.324;8.694;2023-01-19T10:37:32;99004.72;;;0.54;87.46
38716;BME280;24833;49.324;8.694;2023-01-19T10:42:38;99005.22;;;0.58;87.79
38716;BME280;24833;49.324;8.694;2023-01-19T10:45:20;99005.75;;;0.62;87.95
38716;BME280;24833;49.324;8.694;2023-01-19T10:47:49;99012.34;;;0.66;87.81
38716;BME280;24833;49.324;8.694;2023-01-19T10:50:26;99006.94;;;0.67;88.06
38716;BME280;24833;49.324;8.694;2023-01-19T10:53:00;99011.72;;;0.72;87.99
38716;BME280;24833;49.324;8.694;2023-01-19T10:55:36;99013.91;;;0.76;88.06
38716;BME280;24833;49.324;8.694;2023-01-19T10:58:05;99013.59;;;0.79;87.88
38716;BME280;24833;49.324;8.694;2023-01-19T11:00:37;99018.56;;;0.82;88.11
38716;BME280;24833;49.324;8.694;2023-01-19T11:05:52;99014.63;;;0.87;87.98
38716;BME280;24833;49.324;8.694;2023-01-19T11:08:29;99012.38;;;0.92;88.20
38716;BME280;24833;49.324;8.694;2023-01-19T11:11:02;99014.72;;;0.95;88.13
38716;BME280;24833;49.324;8.694;2023-01-19T11:13:35;99017.84;;;0.98;88.13
38716;BME280;24833;49.324;8.694;2023-01-19T11:16:36;99024.31;;;1.04;88.19
38716;BME280;24833;49.324;8.694;2023-01-19T11:19:18;99020.53;;;1.06;88.02
38716;BME280;24833;49.324;8.694;2023-01-19T11:21:45;99019.25;;;1.11;88.26
38716;BME280;24833;49.324;8.694;2023-01-19T11:24:13;99021.56;;;1.14;88.45
38716;BME280;24833;49.324;8.694;2023-01-19T11:26:45;99018.47;;;1.18;88.45
38716;BME280;24833;49.324;8.694;2023-01-19T11:29:21;99010.13;;;1.23;88.29
38716;BME280;24833;49.324;8.694;2023-01-19T11:31:50;99017.69;;;1.26;88.39
38716;BME280;24833;49.324;8.694;2023-01-19T11:37:04;99015.44;;;1.31;88.20
38716;BME280;24833;49.324;8.694;2023-01-19T11:39:52;99015.97;;;1.34;88.24
38716;BME280;24833;49.324;8.694;2023-01-19T11:42:20;99007.25;;;1.34;88.16
38716;BME280;24833;49.324;8.694;2023-01-19T11:50:40;98996.56;;;1.35;88.29
38716;BME280;24833;49.324;8.694;2023-01-19T11:53:23;98992.78;;;1.38;88.03
38716;BME280;24833;49.324;8.694;2023-01-19T11:55:58;98988.38;;;1.39;88.06
38716;BME280;24833;49.324;8.694;2023-01-19T11:58:30;98993.63;;;1.39;87.83
38716;BME280;24833;49.324;8.694;2023-01-19T12:01:18;98984.09;;;1.38;88.06
38716;BME280;24833;49.324;8.694;2023-01-19T12:04:12;98983.91;;;1.39;88.05
38716;BME280;24833;49.324;8.694;2023-01-19T12:06:45;98989.06;;;1.41;87.98
38716;BME280;24833;49.324;8.694;2023-01-19T12:09:25;98987.25;;;1.41;88.14
38716;BME280;24833;49.324;8.694;2023-01-19T12:12:01;98984.44;;;1.43;87.90
38716;BME280;24833;49.324;8.694;2023-01-19T12:14:49;98982.47;;;1.45;87.95
38716;BME280;24833;49.324;8.694;2023-01-19T12:17:30;98977.88;;;1.47;87.99
38716;BME280;24833;49.324;8.694;2023-01-19T12:28:46;98973.31;;;1.49;87.81
38716;BME280;24833;49.324;8.694;2023-01-19T12:31:19;98984.00;;;1.47;87.76
38716;BME280;24833;49.324;8.694;2023-01-19T12:33:47;98975.09;;;1.48;87.92
38716;BME280;24833;49.324;8.694;2023-01-19T12:41:39;98973.31;;;1.49;87.90
38716;BME280;24833;49.324;8.694;2023-01-19T12:49:42;98967.88;;;1.50;87.66
38716;BME280;24833;49.324;8.694;2023-01-19T12:52:17;98965.41;;;1.49;87.79
38716;BME280;24833;49.324;8.694;2023-01-19T12:55:03;98971.31;;;1.51;87.93
38716;BME280;24833;49.324;8.694;2023-01-19T12:57:37;98962.44;;;1.52;87.91
38716;BME280;24833;49.324;8.694;2023-01-19T13:02:45;98962.81;;;1.57;87.92
38716;BME280;24833;49.324;8.694;2023-01-19T13:13:43;98952.22;;;1.83;88.56
38716;BME280;24833;49.324;8.694;2023-01-19T13:21:38;98969.84;;;1.99;88.41
38716;BME280;24833;49.324;8.694;2023-01-19T13:24:19;98957.38;;;2.01;88.29
38716;BME280;24833;49.324;8.694;2023-01-19T13:29:32;98966.28;;;2.08;87.80
38716;BME280;24833;49.324;8.694;2023-01-19T13:32:14;98971.19;;;2.11;88.10
38716;BME280;24833;49.324;8.694;2023-01-19T13:34:49;98969.38;;;2.11;87.76
38716;BME280;24833;49.324;8.694;2023-01-19T13:37:25;98960.50;;;2.12;87.52
38716;BME280;24833;49.324;8.694;2023-01-19T13:39:54;98964.13;;;2.11;87.56
38716;BME280;24833;49.324;8.694;2023-01-19T13:42:38;98963.81;;;2.14;87.79
38716;BME280;24833;49.324;8.694;2023-01-19T13:45:32;98974.47;;;2.13;87.53
38716;BME280;24833;49.324;8.694;2023-01-19T13:48:04;98971.84;;;2.13;87.46
38716;BME280;24833;49.324;8.694;2023-01-19T13:50:36;98971.84;;;2.13;87.12
38716;BME280;24833;49.324;8.694;2023-01-19T13:53:19;98974.47;;;2.13;87.11
38716;BME280;24833;49.324;8.694;2023-01-19T13:55:46;98973.50;;;2.14;87.13
38716;BME280;24833;49.324;8.694;2023-01-19T13:58:21;98977.13;;;2.13;87.06
38716;BME280;24833;49.324;8.694;2023-01-19T14:00:49;98976.63;;;2.09;86.80
38716;BME280;24833;49.324;8.694;2023-01-19T14:03:21;98979.09;;;2.11;87.22
38716;BME280;24833;49.324;8.694;2023-01-19T14:05:52;98985.53;;;2.08;87.02
38716;BME280;24833;49.324;8.694;2023-01-19T14:08:21;98982.72;;;2.10;87.24
38716;BME280;24833;49.324;8.694;2023-01-19T14:13:25;98985.53;;;2.08;87.02
38716;BME280;24833;49.324;8.694;2023-01-19T14:15:56;98992.91;;;2.05;86.55
38716;BME280;24833;49.324;8.694;2023-01-19T14:18:32;98983.53;;;2.02;86.32
38716;BME280;24833;49.324;8.694;2023-01-19T14:21:11;98988.78;;;2.02;86.54
38716;BME280;24833;49.324;8.694;2023-01-19T14:26:50;98982.84;;;2.00;86.90
38716;BME280;24833;49.324;8.694;2023-01-19T14:29:30;98996.00;;;2.00;86.91
38716;BME280;24833;49.324;8.694;2023-01-19T14:34:48;98988.44;;;1.97;87.09
38716;BME280;24833;49.324;8.694;2023-01-19T14:37:34;98997.16;;;1.98;86.93
38716;BME280;24833;49.324;8.694;2023-01-19T14:42:38;98995.00;;;1.93;86.59
38716;BME280;24833;49.324;8.694;2023-01-19T14:45:19;98990.72;;;1.92;86.38